createdAt,value
2023-01-09T00:00:30.220Z,10.63
2023-01-09T00:02:56.972Z,9.82
2023-01-09T00:05:23.675Z,10.68
2023-01-09T00:07:50.327Z,9.27
2023-01-09T00:10:17.091Z,8.52
2023-01-09T00:12:43.776Z,10.57
2023-01-09T00:15:10.638Z,9.15
2023-01-09T00:17:37.433Z,8.65
2023-01-09T00:20:06.826Z,9.10
2023-01-09T00:22:33.517Z,7.95
2023-01-09T00:25:00.136Z,7.32
2023-01-09T00:27:26.858Z,7.50
2023-01-09T00:29:53.587Z,9.57
2023-01-09T00:32:21.013Z,9.15
2023-01-09T00:34:47.645Z,7.95
2023-01-09T00:37:14.350Z,6.57
2023-01-09T00:39:42.475Z,6.80
2023-01-09T00:42:13.914Z,6.13
2023-01-09T00:44:46.182Z,6.80
2023-01-09T00:47:26.219Z,6.85
2023-01-09T00:49:54.247Z,6.28
2023-01-09T00:52:22.025Z,5.40
2023-01-09T00:54:50.022Z,7.57
2023-01-09T00:57:16.898Z,6.22
2023-01-09T00:59:44.178Z,5.07
2023-01-09T01:02:11.151Z,7.72
2023-01-09T01:04:56.931Z,7.55
2023-01-09T01:07:39.097Z,5.95
2023-01-09T01:10:10.443Z,5.35
2023-01-09T01:12:38.090Z,6.55
2023-01-09T01:15:05.798Z,5.47
2023-01-09T01:17:35.142Z,7.63
2023-01-09T01:20:02.392Z,6.88
2023-01-09T01:22:29.308Z,7.78
2023-01-09T01:24:56.095Z,7.70
2023-01-09T01:27:22.763Z,6.60
2023-01-09T01:29:49.479Z,7.50
2023-01-09T01:32:16.214Z,6.40
2023-01-09T01:34:43.039Z,6.22
2023-01-09T01:37:09.802Z,8.27
2023-01-09T01:39:36.405Z,6.78
2023-01-09T01:42:05.001Z,5.25
2023-01-09T01:45:09.251Z,4.82
2023-01-09T01:48:00.882Z,4.80
2023-01-09T01:50:53.954Z,7.57
2023-01-09T01:53:39.483Z,4.57
2023-01-09T01:56:25.158Z,4.15
2023-01-09T01:59:03.198Z,3.83
2023-01-09T02:01:31.014Z,3.67
2023-01-09T02:04:00.004Z,4.00
2023-01-09T02:06:27.624Z,3.70
2023-01-09T02:08:55.201Z,5.30
2023-01-09T02:11:22.008Z,3.92
2023-01-09T02:13:49.187Z,4.25
2023-01-09T02:16:36.749Z,3.28
2023-01-09T02:19:28.486Z,4.45
2023-01-09T02:22:43.478Z,4.15
2023-01-09T02:25:34.623Z,3.13
2023-01-09T02:28:13.541Z,2.70
2023-01-09T02:30:56.789Z,2.40
2023-01-09T02:33:41.825Z,4.00
2023-01-09T02:36:16.975Z,2.70
2023-01-09T02:38:57.993Z,3.25
2023-01-09T02:41:50.095Z,2.72
2023-01-09T02:44:25.782Z,4.75
2023-01-09T02:47:07.907Z,2.83
2023-01-09T02:49:38.756Z,3.03
2023-01-09T02:52:30.287Z,5.43
2023-01-09T02:55:25.377Z,5.20
2023-01-09T02:58:08.944Z,5.70
2023-01-09T03:00:50.116Z,8.63
2023-01-09T03:03:22.565Z,6.68
2023-01-09T03:06:04.292Z,5.15
2023-01-09T03:08:39.843Z,4.18
2023-01-09T03:11:08.833Z,2.50
2023-01-09T03:14:04.000Z,3.25
2023-01-09T03:16:35.522Z,5.95
2023-01-09T03:19:07.446Z,1.90
2023-01-09T03:21:34.931Z,1.55
2023-01-09T03:24:02.402Z,1.45
2023-01-09T03:26:31.003Z,1.70
2023-01-09T03:28:58.887Z,1.30
2023-01-09T03:31:25.833Z,1.02
2023-01-09T03:33:52.880Z,4.38
2023-01-09T03:36:21.602Z,1.40
2023-01-09T03:38:48.764Z,1.30
2023-01-09T03:41:15.644Z,1.75
2023-01-09T03:43:42.261Z,1.52
2023-01-09T03:46:09.085Z,1.80
2023-01-09T03:48:35.771Z,2.10
2023-01-09T03:51:02.920Z,2.70
2023-01-09T03:53:29.757Z,2.70
2023-01-09T03:55:58.700Z,2.60
2023-01-09T03:58:27.038Z,2.63
2023-01-09T04:01:03.344Z,2.60
2023-01-09T04:03:30.304Z,2.60
2023-01-09T04:05:57.352Z,2.97
2023-01-09T04:08:24.012Z,2.88
2023-01-09T04:10:51.800Z,3.50
2023-01-09T04:13:19.018Z,3.22
2023-01-09T04:15:46.143Z,3.60
2023-01-09T04:18:13.847Z,3.67
2023-01-09T04:20:41.087Z,3.35
2023-01-09T04:23:07.927Z,3.70
2023-01-09T04:25:34.957Z,3.10
2023-01-09T04:28:01.618Z,3.70
2023-01-09T04:30:28.202Z,4.47
2023-01-09T04:32:54.854Z,3.88
2023-01-09T04:35:21.862Z,3.97
2023-01-09T04:37:48.606Z,4.00
2023-01-09T04:40:16.578Z,3.92
2023-01-09T04:42:43.189Z,4.25
2023-01-09T04:45:11.486Z,4.75
2023-01-09T04:47:38.550Z,4.40
2023-01-09T04:50:05.657Z,4.70
2023-01-09T04:52:32.990Z,3.72
2023-01-09T04:54:59.728Z,4.38
2023-01-09T04:57:26.470Z,4.15
2023-01-09T04:59:54.241Z,6.38
2023-01-09T05:02:21.194Z,4.45
2023-01-09T05:04:48.163Z,4.45
2023-01-09T05:07:14.981Z,4.35
2023-01-09T05:09:41.926Z,4.78
2023-01-09T05:12:08.621Z,5.00
2023-01-09T05:14:35.362Z,5.65
2023-01-09T05:17:02.233Z,8.13
2023-01-09T05:19:29.280Z,6.90
2023-01-09T05:21:56.026Z,4.80
2023-01-09T05:24:22.643Z,5.45
2023-01-09T05:26:51.790Z,4.22
2023-01-09T05:29:18.427Z,6.55
2023-01-09T05:31:46.946Z,4.95
2023-01-09T05:34:13.625Z,4.55
2023-01-09T05:36:40.493Z,5.47
2023-01-09T05:39:07.316Z,5.28
2023-01-09T05:41:34.088Z,7.35
2023-01-09T05:44:00.727Z,7.55
2023-01-09T05:46:27.351Z,6.45
2023-01-09T05:48:54.009Z,5.30
2023-01-09T05:51:20.683Z,4.68
2023-01-09T05:53:50.098Z,7.28
2023-01-09T05:56:16.947Z,8.30
2023-01-09T05:58:43.648Z,5.97
2023-01-09T06:01:10.330Z,5.00
2023-01-09T06:03:37.207Z,8.55
2023-01-09T06:06:04.010Z,6.78
2023-01-09T06:08:30.632Z,8.07
2023-01-09T06:10:57.276Z,8.05
2023-01-09T06:13:23.895Z,6.10
2023-01-09T06:15:50.522Z,10.15
2023-01-09T06:18:17.249Z,6.85
2023-01-09T06:20:46.984Z,8.52
2023-01-09T06:23:14.038Z,9.18
2023-01-09T06:25:41.206Z,6.85
2023-01-09T06:28:07.967Z,8.32
2023-01-09T06:30:34.697Z,9.10
2023-01-09T06:33:01.452Z,10.25
2023-01-09T06:35:28.206Z,7.32
2023-01-09T06:37:54.886Z,8.55
2023-01-09T06:40:21.539Z,12.82
2023-01-09T06:42:51.282Z,9.27
2023-01-09T06:45:18.321Z,8.98
2023-01-09T06:47:45.114Z,9.18
2023-01-09T06:50:12.745Z,11.05
2023-01-09T06:52:39.991Z,10.57
2023-01-09T06:55:08.258Z,10.32
2023-01-09T06:57:35.033Z,9.40
2023-01-09T07:00:01.963Z,10.90
2023-01-09T07:02:28.659Z,10.80
2023-01-09T07:04:55.307Z,10.82
2023-01-09T07:07:22.397Z,11.48
2023-01-09T07:09:49.248Z,9.50
2023-01-09T07:12:16.036Z,11.20
2023-01-09T07:14:43.013Z,15.02
2023-01-09T07:17:12.315Z,12.68
2023-01-09T07:19:38.944Z,10.98
2023-01-09T07:22:05.626Z,13.32
2023-01-09T07:24:32.355Z,12.48
2023-01-09T07:26:58.995Z,12.75
2023-01-09T07:29:25.618Z,12.52
2023-01-09T07:31:52.214Z,12.15
2023-01-09T07:34:19.456Z,14.10
2023-01-09T07:36:46.772Z,13.85
2023-01-09T07:39:13.792Z,12.65
2023-01-09T07:41:40.571Z,13.93
2023-01-09T07:44:11.162Z,12.20
2023-01-09T07:46:38.139Z,11.35
2023-01-09T07:49:04.875Z,12.45
2023-01-09T07:51:31.576Z,11.73
2023-01-09T07:53:58.858Z,14.20
2023-01-09T07:56:25.556Z,14.35
2023-01-09T07:58:52.241Z,13.23
2023-01-09T08:01:18.998Z,13.02
2023-01-09T08:03:46.788Z,13.45
2023-01-09T08:06:13.494Z,20.45
2023-01-09T08:08:40.095Z,17.80
2023-01-09T08:11:06.792Z,18.58
2023-01-09T08:13:33.710Z,19.00
2023-01-09T08:16:00.408Z,18.90
2023-01-09T08:18:27.071Z,19.15
2023-01-09T08:20:53.727Z,19.40
2023-01-09T08:23:20.333Z,18.90
2023-01-09T08:25:46.943Z,19.65
2023-01-09T08:28:13.641Z,18.63
2023-01-09T08:30:40.463Z,19.40
2023-01-09T08:33:07.268Z,18.15
2023-01-09T08:35:34.013Z,17.13
2023-01-09T08:38:00.740Z,18.40
2023-01-09T08:40:27.503Z,19.05
2023-01-09T08:43:12.783Z,19.88
2023-01-09T08:45:58.320Z,19.30
2023-01-09T08:48:25.239Z,20.15
2023-01-09T08:50:54.001Z,19.98
2023-01-09T08:53:20.767Z,20.48
2023-01-09T08:55:47.802Z,22.27
2023-01-09T08:58:14.611Z,24.63
2023-01-09T09:00:41.607Z,22.75
2023-01-09T09:03:09.741Z,26.30
2023-01-09T09:05:36.454Z,24.27
2023-01-09T09:08:04.024Z,23.00
2023-01-09T09:10:31.153Z,23.20
2023-01-09T09:12:59.306Z,22.23
2023-01-09T09:15:28.013Z,27.50
2023-01-09T09:17:57.324Z,22.35
2023-01-09T09:20:26.071Z,22.60
2023-01-09T09:22:52.860Z,19.67
2023-01-09T09:25:20.185Z,21.55
2023-01-09T09:27:47.393Z,20.15
2023-01-09T09:30:17.114Z,21.98
2023-01-09T09:32:49.292Z,23.08
2023-01-09T09:35:17.849Z,23.73
2023-01-09T09:37:54.300Z,21.08
2023-01-09T09:40:31.112Z,20.88
2023-01-09T09:43:35.476Z,23.15
2023-01-09T09:46:30.564Z,23.30
2023-01-09T09:49:02.397Z,26.75
2023-01-09T09:51:59.339Z,27.83
2023-01-09T09:54:58.134Z,28.08
2023-01-09T09:57:34.192Z,29.20
2023-01-09T10:00:02.152Z,25.42
2023-01-09T10:02:42.806Z,22.38
2023-01-09T10:05:18.287Z,23.10
2023-01-09T10:07:48.995Z,22.08
2023-01-09T10:10:44.072Z,23.83
2023-01-09T10:13:36.097Z,24.27
2023-01-09T10:16:33.402Z,23.35
2023-01-09T10:19:19.179Z,22.42
2023-01-09T10:21:57.269Z,26.90
2023-01-09T10:24:34.159Z,26.55
2023-01-09T10:27:08.240Z,26.92
2023-01-09T10:30:01.011Z,23.77
2023-01-09T10:32:34.713Z,24.05
2023-01-09T10:35:07.343Z,24.77
2023-01-09T10:37:46.585Z,23.50
2023-01-09T10:40:22.428Z,26.92
2023-01-09T10:42:55.279Z,23.55
2023-01-09T10:45:31.289Z,28.70
2023-01-09T10:48:34.995Z,30.50
2023-01-09T10:51:03.559Z,23.23
2023-01-09T10:53:38.609Z,25.15
2023-01-09T10:56:37.005Z,25.33
2023-01-09T10:59:03.674Z,23.20
2023-01-09T11:01:38.105Z,24.98
2023-01-09T11:04:26.891Z,23.77
2023-01-09T11:07:00.105Z,24.77
2023-01-09T11:09:26.969Z,22.70
2023-01-09T11:11:53.632Z,23.13
2023-01-09T11:14:31.735Z,23.98
2023-01-09T11:17:03.208Z,22.17
2023-01-09T11:19:34.360Z,21.48
2023-01-09T11:22:17.684Z,21.58
2023-01-09T11:24:44.906Z,21.40
2023-01-09T11:27:14.242Z,21.40
2023-01-09T11:29:42.036Z,19.45
2023-01-09T11:32:23.425Z,21.20
2023-01-09T11:34:50.254Z,19.23
2023-01-09T11:37:26.005Z,20.65
2023-01-09T11:39:53.145Z,20.10
2023-01-09T11:42:43.185Z,20.50
2023-01-09T11:45:21.932Z,22.17
2023-01-09T11:47:48.636Z,21.52
2023-01-09T11:50:23.943Z,22.20
2023-01-09T11:53:16.415Z,23.85
2023-01-09T11:55:44.298Z,21.70
2023-01-09T11:58:16.635Z,21.45
2023-01-09T12:00:53.836Z,21.02
2023-01-09T12:03:26.292Z,21.35
2023-01-09T12:06:28.927Z,23.13
2023-01-09T12:09:00.778Z,21.20
2023-01-09T12:11:42.591Z,23.85
2023-01-09T12:14:25.804Z,21.77
2023-01-09T12:16:55.456Z,22.73
2023-01-09T12:19:25.116Z,22.77
2023-01-09T12:22:12.069Z,21.38
2023-01-09T12:24:49.441Z,21.77
2023-01-09T12:27:28.257Z,21.15
2023-01-09T12:30:01.089Z,20.65
2023-01-09T12:32:46.056Z,21.92
2023-01-09T12:35:40.436Z,21.65
2023-01-09T12:38:31.855Z,20.77
2023-01-09T12:41:22.694Z,21.27
2023-01-09T12:44:35.469Z,22.88
2023-01-09T12:47:49.986Z,21.77
2023-01-09T12:50:37.964Z,22.00
2023-01-09T12:53:24.929Z,21.30
2023-01-09T12:55:59.958Z,23.13
2023-01-09T12:58:26.553Z,22.33
2023-01-09T13:00:56.366Z,21.95
2023-01-09T13:03:34.254Z,22.02
2023-01-09T13:06:02.962Z,20.98
2023-01-09T13:08:54.940Z,20.45
2023-01-09T13:11:31.386Z,20.15
2023-01-09T13:14:20.472Z,22.25
2023-01-09T13:16:53.490Z,22.30
2023-01-09T13:19:39.802Z,21.80
2023-01-09T13:22:07.800Z,21.27
2023-01-09T13:24:44.424Z,20.35
2023-01-09T13:27:15.886Z,20.42
2023-01-09T13:29:45.466Z,21.17
2023-01-09T13:32:25.683Z,21.60
2023-01-09T13:34:54.715Z,22.55
2023-01-09T13:37:33.498Z,21.73
2023-01-09T13:40:02.991Z,22.92
2023-01-09T13:42:36.131Z,22.85
2023-01-09T13:45:16.887Z,21.33
2023-01-09T13:47:44.300Z,21.50
2023-01-09T13:50:10.875Z,22.70
2023-01-09T13:52:42.578Z,21.98
2023-01-09T13:55:12.241Z,22.35
2023-01-09T13:57:43.688Z,20.88
2023-01-09T14:00:14.312Z,19.92
2023-01-09T14:02:41.163Z,21.17
2023-01-09T14:05:12.047Z,20.58
2023-01-09T14:07:49.050Z,24.52
2023-01-09T14:10:26.287Z,22.13
2023-01-09T14:12:55.589Z,21.95
2023-01-09T14:15:39.276Z,22.20
2023-01-09T14:18:14.733Z,21.55
2023-01-09T14:21:00.349Z,21.65
2023-01-09T14:23:46.137Z,20.73
2023-01-09T14:26:39.764Z,17.50
2023-01-09T14:29:28.249Z,15.85
2023-01-09T14:32:36.052Z,15.57
2023-01-09T14:35:15.570Z,15.48
2023-01-09T14:37:43.534Z,15.63
2023-01-09T14:40:22.752Z,18.05
2023-01-09T14:42:55.265Z,16.13
2023-01-09T14:45:25.631Z,14.85
2023-01-09T14:48:00.475Z,15.10
2023-01-09T14:50:35.852Z,13.77
2023-01-09T14:53:06.767Z,11.48
2023-01-09T14:55:42.404Z,10.73
2023-01-09T14:58:18.153Z,11.32
2023-01-09T15:01:11.214Z,11.68
2023-01-09T15:04:00.862Z,11.85
2023-01-09T15:06:36.119Z,12.48
2023-01-09T15:09:08.684Z,11.80
2023-01-09T15:11:38.648Z,12.05
2023-01-09T15:14:06.372Z,10.50
2023-01-09T15:16:33.304Z,11.63
2023-01-09T15:19:07.459Z,12.85
2023-01-09T15:21:34.151Z,13.98
2023-01-09T15:24:26.932Z,13.77
2023-01-09T15:26:55.256Z,14.60
2023-01-09T15:29:22.802Z,12.65
2023-01-09T15:32:00.370Z,11.55
2023-01-09T15:34:27.394Z,11.27
2023-01-09T15:36:54.392Z,12.75
2023-01-09T15:39:36.120Z,12.93
2023-01-09T15:42:21.919Z,12.73
2023-01-09T15:44:52.022Z,17.23
2023-01-09T15:47:27.517Z,13.52
2023-01-09T15:49:56.170Z,12.23
2023-01-09T15:52:24.005Z,11.73
2023-01-09T15:54:51.059Z,13.52
2023-01-09T15:57:26.983Z,11.18
2023-01-09T16:00:17.878Z,11.45
2023-01-09T16:03:06.255Z,10.77
2023-01-09T16:05:33.656Z,11.23
2023-01-09T16:08:02.401Z,11.23
2023-01-09T16:10:35.388Z,11.77
2023-01-09T16:13:02.895Z,10.73
2023-01-09T16:15:34.386Z,12.43
2023-01-09T16:18:16.194Z,12.30
2023-01-09T16:20:43.581Z,13.32
2023-01-09T16:23:22.856Z,12.23
2023-01-09T16:25:49.933Z,13.32
2023-01-09T16:28:27.241Z,18.95
2023-01-09T16:31:08.098Z,12.35
2023-01-09T16:33:35.349Z,13.57
2023-01-09T16:36:04.844Z,16.45
2023-01-09T16:38:31.666Z,13.48
2023-01-09T16:41:28.290Z,15.38
2023-01-09T16:43:54.963Z,12.95
2023-01-09T16:46:22.025Z,20.55
2023-01-09T16:48:53.234Z,22.58
2023-01-09T16:51:22.727Z,16.63
2023-01-09T16:53:50.102Z,17.88
2023-01-09T16:56:20.341Z,18.88
2023-01-09T16:58:47.138Z,21.35
2023-01-09T17:01:15.626Z,20.05
2023-01-09T17:03:44.251Z,16.83
2023-01-09T17:06:23.458Z,14.90
2023-01-09T17:08:51.406Z,18.85
2023-01-09T17:11:31.383Z,14.02
2023-01-09T17:14:01.959Z,18.17
2023-01-09T17:16:29.861Z,19.02
2023-01-09T17:18:56.949Z,18.50
2023-01-09T17:21:28.704Z,19.85
2023-01-09T17:24:24.901Z,19.25
2023-01-09T17:27:10.159Z,20.95
2023-01-09T17:29:37.124Z,22.23
2023-01-09T17:32:04.041Z,16.58
2023-01-09T17:34:30.829Z,15.70
2023-01-09T17:36:57.562Z,18.58
2023-01-09T17:39:24.172Z,18.80
2023-01-09T17:41:50.786Z,19.80
2023-01-09T17:44:17.531Z,17.30
2023-01-09T17:46:45.023Z,22.27
2023-01-09T17:49:17.291Z,23.80
2023-01-09T17:51:44.212Z,22.38
2023-01-09T17:54:10.938Z,25.15
2023-01-09T17:56:39.645Z,23.23
2023-01-09T17:59:10.080Z,19.05
2023-01-09T18:01:37.277Z,19.92
2023-01-09T18:04:04.089Z,24.65
2023-01-09T18:06:30.728Z,11.02
2023-01-09T18:08:58.428Z,10.35
2023-01-09T18:11:25.345Z,14.55
2023-01-09T18:13:56.111Z,16.63
2023-01-09T18:16:25.879Z,14.38
2023-01-09T18:18:55.157Z,15.20
2023-01-09T18:21:24.691Z,19.33
2023-01-09T18:23:51.580Z,16.80
2023-01-09T18:26:20.768Z,21.33
2023-01-09T18:28:55.061Z,17.48
2023-01-09T18:31:23.853Z,19.02
2023-01-09T18:33:52.117Z,19.23
2023-01-09T18:36:24.243Z,17.77
2023-01-09T18:38:53.109Z,24.08
2023-01-09T18:41:21.070Z,27.48
2023-01-09T18:43:52.873Z,35.17
2023-01-09T18:46:23.938Z,27.50
2023-01-09T18:48:52.653Z,26.02
2023-01-09T18:51:19.343Z,31.58
2023-01-09T18:53:45.976Z,37.78
2023-01-09T18:56:12.613Z,33.60
2023-01-09T18:58:39.423Z,34.33
2023-01-09T19:01:06.311Z,42.03
2023-01-09T19:03:33.035Z,35.35
2023-01-09T19:06:01.426Z,34.58
2023-01-09T19:08:32.607Z,44.03
2023-01-09T19:10:59.632Z,44.53
2023-01-09T19:13:33.588Z,46.58
2023-01-09T19:16:00.946Z,42.70
2023-01-09T19:18:29.395Z,37.85
2023-01-09T19:20:56.007Z,34.63
2023-01-09T19:23:25.843Z,39.75
2023-01-09T19:25:53.449Z,33.40
2023-01-09T19:28:20.585Z,33.72
2023-01-09T19:30:54.533Z,29.90
2023-01-09T19:33:21.204Z,37.50
2023-01-09T19:35:53.960Z,32.70
2023-01-09T19:38:24.835Z,29.83
2023-01-09T19:40:51.650Z,32.72
2023-01-09T19:43:27.304Z,35.40
2023-01-09T19:45:55.368Z,31.58
2023-01-09T19:48:23.359Z,36.20
2023-01-09T19:50:50.115Z,38.63
2023-01-09T19:53:16.839Z,24.75
2023-01-09T19:55:43.445Z,25.90
2023-01-09T19:58:10.203Z,18.88
2023-01-09T20:00:37.094Z,13.18
2023-01-09T20:03:03.793Z,13.50
2023-01-09T20:05:30.464Z,13.82
2023-01-09T20:07:57.633Z,15.25
2023-01-09T20:10:24.461Z,5.20
2023-01-09T20:12:51.490Z,12.30
2023-01-09T20:15:18.230Z,7.78
2023-01-09T20:17:44.875Z,7.18
2023-01-09T20:20:11.689Z,11.65
2023-01-09T20:22:38.333Z,11.70
2023-01-09T20:25:07.824Z,12.15
2023-01-09T20:27:34.496Z,9.52
2023-01-09T20:30:01.120Z,5.45
2023-01-09T20:32:29.798Z,15.75
2023-01-09T20:34:57.048Z,18.63
2023-01-09T20:37:23.739Z,18.23
2023-01-09T20:39:53.319Z,22.73
2023-01-09T20:42:19.984Z,23.35
2023-01-09T20:44:46.884Z,26.55
2023-01-09T20:47:13.808Z,26.13
2023-01-09T20:49:40.584Z,32.47
2023-01-09T20:52:07.316Z,25.55
2023-01-09T20:54:35.476Z,31.25
2023-01-09T20:57:02.200Z,30.73
2023-01-09T20:59:28.940Z,30.70
2023-01-09T21:01:55.664Z,31.33
2023-01-09T21:04:22.338Z,24.65
2023-01-09T21:06:50.450Z,32.65
2023-01-09T21:09:17.615Z,30.90
2023-01-09T21:11:44.283Z,31.73
2023-01-09T21:14:10.913Z,25.08
2023-01-09T21:16:37.737Z,27.35
2023-01-09T21:19:04.485Z,25.52
2023-01-09T21:21:31.180Z,24.80
2023-01-09T21:24:00.750Z,32.30
2023-01-09T21:26:30.217Z,29.08
2023-01-09T21:28:58.619Z,39.65
2023-01-09T21:31:34.276Z,30.55
2023-01-09T21:34:07.071Z,33.22
2023-01-09T21:36:35.104Z,31.92
2023-01-09T21:39:02.093Z,32.88
2023-01-09T21:41:47.025Z,29.75
2023-01-09T21:44:32.390Z,32.97
2023-01-09T21:49:31.033Z,45.13
2023-01-09T21:51:57.918Z,26.98
2023-01-09T21:54:25.055Z,26.52
2023-01-09T21:56:52.668Z,38.00
2023-01-09T21:59:19.596Z,34.50
2023-01-09T22:01:47.640Z,25.17
2023-01-09T22:04:16.009Z,36.13
2023-01-09T22:06:43.010Z,35.50
2023-01-09T22:09:10.201Z,39.70
2023-01-09T22:11:38.512Z,29.20
2023-01-09T22:14:05.757Z,40.67
2023-01-09T22:16:33.277Z,40.22
2023-01-09T22:19:00.041Z,39.45
2023-01-09T22:21:26.781Z,33.58
2023-01-09T22:23:54.086Z,47.35
2023-01-09T22:26:21.270Z,56.17
2023-01-09T22:28:48.304Z,38.17
2023-01-09T22:31:20.812Z,38.15
2023-01-09T22:33:55.210Z,46.72
2023-01-09T22:36:21.853Z,42.28
2023-01-09T22:38:51.684Z,39.40
2023-01-09T22:41:18.280Z,46.53
2023-01-09T22:43:44.875Z,48.60
2023-01-09T22:46:11.991Z,43.75
2023-01-09T22:48:39.787Z,45.45
2023-01-09T22:51:13.537Z,46.60
2023-01-09T22:53:40.249Z,45.83
2023-01-09T22:56:09.804Z,45.88
2023-01-09T22:58:36.644Z,49.90
2023-01-09T23:01:04.491Z,55.10
2023-01-09T23:03:31.248Z,49.15
2023-01-09T23:06:06.958Z,53.80
2023-01-09T23:08:34.213Z,58.67
2023-01-09T23:11:01.634Z,67.15
2023-01-09T23:13:28.332Z,69.20
2023-01-09T23:15:55.109Z,69.28
2023-01-09T23:18:21.834Z,64.35
2023-01-09T23:20:57.143Z,65.63
2023-01-09T23:23:25.237Z,70.93
2023-01-09T23:25:57.448Z,80.07
2023-01-09T23:28:25.526Z,76.00
2023-01-09T23:30:53.032Z,69.35
2023-01-09T23:33:21.067Z,72.85
2023-01-09T23:35:48.363Z,77.05
2023-01-09T23:38:15.398Z,52.55
2023-01-09T23:40:42.635Z,45.42
2023-01-09T23:43:14.905Z,47.08
2023-01-09T23:45:43.942Z,52.60
2023-01-09T23:48:15.324Z,40.38
2023-01-09T23:51:00.220Z,40.40
2023-01-09T23:53:27.096Z,36.67
2023-01-09T23:55:55.156Z,40.97
2023-01-09T23:58:22.218Z,40.00
